Weather Station Data

Station Data Captured at Five Minute Intervals Since Midnight Local Time


Date Time Temp. RH % Dew Pt. Wind Speed Wind Dir. Peak Wind Wind Chill Pressure Precip. Solar W/m2 ET
5/30/24 2:15a 56.9 84 52.1 0.0 --- 0.0 56.9 30.147 0.00 0 0.000
5/30/24 2:10a 57.1 84 52.3 0.0 --- 0.0 57.1 30.146 0.00 0 0.000
5/30/24 2:05a 57.1 84 52.3 0.0 --- 0.0 57.1 30.147 0.00 0 0.000
5/30/24 2:00a 57.2 84 52.4 0.0 --- 0.0 57.2 30.147 0.00 0 0.001
5/30/24 1:55a 57.2 84 52.4 0.0 --- 0.0 57.2 30.148 0.00 0 0.000
5/30/24 1:50a 57.1 84 52.3 0.0 --- 0.0 57.1 30.149 0.00 0 0.000
5/30/24 1:45a 57.0 83 51.9 0.0 NW 1.0 57.0 30.150 0.00 0 0.000
5/30/24 1:40a 57.1 83 52.0 0.0 NW 1.0 57.1 30.149 0.00 0 0.000
5/30/24 1:35a 57.4 83 52.3 0.0 --- 0.0 57.4 30.150 0.00 0 0.000
5/30/24 1:30a 57.6 83 52.5 0.0 --- 0.0 57.6 30.152 0.00 0 0.000
5/30/24 1:25a 57.8 83 52.7 0.0 --- 0.0 57.8 30.153 0.00 0 0.000
5/30/24 1:20a 58.0 83 52.9 0.0 --- 0.0 58.0 30.154 0.00 0 0.000
5/30/24 1:15a 58.1 83 53.0 0.0 --- 0.0 58.1 30.155 0.00 0 0.000
5/30/24 1:10a 58.3 83 53.2 0.0 --- 0.0 58.3 30.155 0.00 0 0.000
5/30/24 1:05a 58.4 83 53.3 0.0 --- 0.0 58.4 30.154 0.00 0 0.000
5/30/24 1:00a 58.6 83 53.5 0.0 --- 0.0 58.6 30.155 0.00 0 0.001
5/30/24 12:55a 58.7 83 53.5 0.0 NW 1.0 58.7 30.154 0.00 0 0.000
5/30/24 12:50a 58.9 83 53.7 0.0 --- 0.0 58.9 30.155 0.00 0 0.000
5/30/24 12:45a 58.9 83 53.7 0.0 --- 0.0 58.9 30.155 0.00 0 0.000
5/30/24 12:40a 58.9 83 53.7 0.0 --- 0.0 58.9 30.154 0.00 0 0.000
5/30/24 12:35a 58.9 83 53.7 0.0 --- 0.0 58.9 30.155 0.00 0 0.000
5/30/24 12:30a 59.0 83 53.8 0.0 --- 0.0 59.0 30.154 0.00 0 0.000
5/30/24 12:25a 59.1 82 53.6 0.0 --- 0.0 59.1 30.155 0.00 0 0.000
5/30/24 12:20a 59.1 82 53.6 0.0 --- 0.0 59.1 30.154 0.00 0 0.000
5/30/24 12:15a 59.1 82 53.6 0.0 --- 0.0 59.1 30.155 0.00 0 0.000
5/30/24 12:10a 59.2 82 53.7 0.0 --- 0.0 59.2 30.154 0.00 0 0.000
5/30/24 12:05a 59.2 82 53.7 0.0 --- 0.0 59.2 30.154 0.00 0 0.000
5/30/24 12:00a 59.3 82 53.8 0.0 --- 0.0 59.3 30.154 0.00 0 0.001

16,514 Views